createdAt,value
2023-03-10T00:01:24.535Z,91.05
2023-03-10T00:03:53.068Z,91.44
2023-03-10T00:06:23.253Z,91.48
2023-03-10T00:08:51.253Z,92.00
2023-03-10T00:11:19.143Z,92.34
2023-03-10T00:13:46.438Z,91.63
2023-03-10T00:16:19.114Z,91.47
2023-03-10T00:18:47.985Z,91.68
2023-03-10T00:21:21.880Z,91.73
2023-03-10T00:23:49.206Z,91.87
2023-03-10T00:26:19.620Z,92.70
2023-03-10T00:28:47.287Z,92.20
2023-03-10T00:31:20.820Z,91.68
2023-03-10T00:33:48.934Z,91.61
2023-03-10T00:36:17.768Z,92.14
2023-03-10T00:38:46.196Z,91.88
2023-03-10T00:41:16.256Z,91.81
2023-03-10T00:43:43.802Z,91.87
2023-03-10T00:46:11.982Z,91.84
2023-03-10T00:48:39.736Z,91.76
2023-03-10T00:51:07.828Z,91.38
2023-03-10T00:53:40.289Z,91.20
2023-03-10T00:56:19.952Z,91.34
2023-03-10T00:58:51.658Z,90.74
2023-03-10T01:01:22.855Z,91.92
2023-03-10T01:03:52.058Z,91.66
2023-03-10T01:06:20.871Z,92.01
2023-03-10T01:08:48.346Z,91.36
2023-03-10T01:11:20.667Z,91.32
2023-03-10T01:13:49.759Z,90.45
2023-03-10T01:16:17.294Z,90.87
2023-03-10T01:18:45.242Z,90.53
2023-03-10T01:21:29.107Z,90.21
2023-03-10T01:23:56.783Z,90.63
2023-03-10T01:26:24.073Z,90.07
2023-03-10T01:28:51.772Z,89.92
2023-03-10T01:31:19.238Z,89.51
2023-03-10T01:33:47.202Z,88.87
2023-03-10T01:36:22.403Z,88.64
2023-03-10T01:38:50.048Z,88.18
2023-03-10T01:41:20.862Z,87.53
2023-03-10T01:43:53.704Z,87.60
2023-03-10T01:46:27.189Z,87.95
2023-03-10T01:48:59.595Z,86.97
2023-03-10T01:51:29.407Z,88.05
2023-03-10T01:53:56.792Z,87.13
2023-03-10T01:56:24.392Z,86.80
2023-03-10T01:59:00.572Z,85.27
2023-03-10T02:01:29.712Z,85.29
2023-03-10T02:04:03.263Z,87.37
2023-03-10T02:06:32.672Z,86.52
2023-03-10T02:09:02.445Z,87.47
2023-03-10T02:11:29.885Z,87.52
2023-03-10T02:13:57.373Z,85.91
2023-03-10T02:16:24.720Z,85.55
2023-03-10T02:18:52.086Z,85.53
2023-03-10T02:21:42.888Z,84.10
2023-03-10T02:24:15.563Z,83.56
2023-03-10T02:26:50.336Z,84.50
2023-03-10T02:29:32.934Z,84.07
2023-03-10T02:32:01.784Z,83.23
2023-03-10T02:34:29.529Z,83.19
2023-03-10T02:36:57.373Z,84.20
2023-03-10T02:39:25.181Z,84.46
2023-03-10T02:41:53.020Z,85.04
2023-03-10T02:44:24.557Z,83.69
2023-03-10T02:46:52.381Z,83.20
2023-03-10T02:49:24.898Z,83.48
2023-03-10T02:51:54.904Z,83.31
2023-03-10T02:54:22.159Z,84.43
2023-03-10T02:56:51.534Z,84.68
2023-03-10T02:59:19.745Z,84.97
2023-03-10T03:01:50.941Z,84.97
2023-03-10T03:04:20.027Z,84.47
2023-03-10T03:06:47.983Z,84.54
2023-03-10T03:09:15.729Z,84.37
2023-03-10T03:11:43.094Z,84.24
2023-03-10T03:14:10.635Z,84.76
2023-03-10T03:16:39.286Z,86.73
2023-03-10T03:19:09.680Z,87.52
2023-03-10T03:21:38.991Z,87.22
2023-03-10T03:24:06.346Z,86.93
2023-03-10T03:26:33.725Z,87.85
2023-03-10T03:29:13.812Z,87.64
2023-03-10T03:31:41.839Z,87.98
2023-03-10T03:34:21.682Z,88.36
2023-03-10T03:36:55.633Z,88.06
2023-03-10T03:39:28.763Z,86.42
2023-03-10T03:41:59.856Z,86.75
2023-03-10T03:44:32.016Z,86.45
2023-03-10T03:47:00.475Z,86.57
2023-03-10T03:49:28.722Z,86.42
2023-03-10T03:51:56.034Z,87.12
2023-03-10T03:54:24.330Z,87.09
2023-03-10T03:56:52.118Z,86.59
2023-03-10T03:59:19.513Z,86.19
2023-03-10T04:01:50.000Z,86.14
2023-03-10T04:04:17.901Z,86.61
2023-03-10T04:06:45.288Z,87.12
2023-03-10T04:09:13.760Z,88.06
2023-03-10T04:11:41.178Z,87.46
2023-03-10T04:14:08.714Z,87.40
2023-03-10T04:16:36.130Z,87.10
2023-03-10T04:19:07.686Z,86.74
2023-03-10T04:21:40.092Z,86.15
2023-03-10T04:24:08.048Z,86.03
2023-03-10T04:26:35.520Z,85.99
2023-03-10T04:29:03.886Z,86.17
2023-03-10T04:31:36.315Z,85.87
2023-03-10T04:34:05.136Z,86.54
2023-03-10T04:36:32.970Z,86.41
2023-03-10T04:39:05.286Z,86.75
2023-03-10T04:41:33.132Z,89.43
2023-03-10T04:44:00.653Z,90.50
2023-03-10T04:46:31.718Z,89.78
2023-03-10T04:48:59.358Z,89.29
2023-03-10T04:51:26.648Z,88.61
2023-03-10T04:54:00.391Z,88.64
2023-03-10T04:56:30.705Z,88.94
2023-03-10T04:58:58.231Z,89.59
2023-03-10T05:01:26.373Z,89.52
2023-03-10T05:04:00.837Z,89.49
2023-03-10T05:06:28.834Z,89.35
2023-03-10T05:09:12.835Z,88.93
2023-03-10T05:11:40.158Z,89.32
2023-03-10T05:14:07.736Z,89.85
2023-03-10T05:16:35.130Z,89.95
2023-03-10T05:19:02.492Z,89.93
2023-03-10T05:21:32.060Z,90.35
2023-03-10T05:23:59.944Z,92.03
2023-03-10T05:26:28.006Z,91.60
2023-03-10T05:28:55.399Z,92.02
2023-03-10T05:31:30.439Z,93.11
2023-03-10T05:34:04.952Z,94.47
2023-03-10T05:36:32.452Z,95.43
2023-03-10T05:39:00.526Z,95.83
2023-03-10T05:41:29.147Z,96.59
2023-03-10T05:44:01.223Z,97.12
2023-03-10T05:46:29.461Z,97.48
2023-03-10T05:48:59.062Z,97.14
2023-03-10T05:51:26.630Z,96.54
2023-03-10T05:53:54.694Z,96.81
2023-03-10T05:56:26.377Z,96.68
2023-03-10T05:58:58.183Z,97.07
2023-03-10T06:01:30.522Z,97.02
2023-03-10T06:03:57.926Z,97.23
2023-03-10T06:06:25.336Z,97.48
2023-03-10T06:08:52.786Z,97.77
2023-03-10T06:11:20.100Z,98.16
2023-03-10T06:13:48.337Z,97.66
2023-03-10T06:16:15.898Z,98.07
2023-03-10T06:18:43.648Z,98.01
2023-03-10T06:21:13.695Z,97.31
2023-03-10T06:23:41.543Z,97.31
2023-03-10T06:26:15.033Z,98.02
2023-03-10T06:28:45.123Z,98.27
2023-03-10T06:31:16.744Z,98.32
2023-03-10T06:33:44.807Z,98.64
2023-03-10T06:36:13.283Z,98.70
2023-03-10T06:38:41.440Z,98.32
2023-03-10T06:41:09.380Z,98.21
2023-03-10T06:43:36.923Z,97.90
2023-03-10T06:46:06.701Z,98.53
2023-03-10T06:48:37.856Z,98.59
2023-03-10T06:51:07.426Z,98.61
2023-03-10T06:53:35.007Z,97.67
2023-03-10T06:56:06.600Z,97.34
2023-03-10T06:58:35.934Z,97.21
2023-03-10T07:01:05.484Z,97.36
2023-03-10T07:03:33.201Z,97.26
2023-03-10T07:06:00.863Z,96.58
2023-03-10T07:08:29.178Z,96.53
2023-03-10T07:10:57.109Z,95.44
2023-03-10T07:13:24.660Z,94.82
2023-03-10T07:15:52.108Z,93.96
2023-03-10T07:18:19.492Z,93.61
2023-03-10T07:20:47.893Z,93.71
2023-03-10T07:23:15.617Z,92.14
2023-03-10T07:25:42.964Z,92.45
2023-03-10T07:28:10.501Z,93.24
2023-03-10T07:30:38.704Z,89.40
2023-03-10T07:33:06.129Z,86.08
2023-03-10T07:35:36.629Z,86.27
2023-03-10T07:38:05.030Z,84.46
2023-03-10T07:40:32.304Z,83.41
2023-03-10T07:42:59.705Z,83.96
2023-03-10T07:45:30.873Z,82.13
2023-03-10T07:47:58.194Z,76.29
2023-03-10T07:50:26.598Z,73.93
2023-03-10T07:52:55.431Z,67.56
2023-03-10T07:55:23.415Z,59.72
2023-03-10T07:57:50.790Z,53.76
2023-03-10T08:00:18.706Z,48.83
2023-03-10T08:02:46.052Z,46.62
2023-03-10T08:05:14.905Z,45.19
2023-03-10T08:07:43.495Z,43.39
2023-03-10T08:10:11.694Z,46.15
2023-03-10T08:12:39.331Z,52.94
2023-03-10T08:15:07.371Z,57.97
2023-03-10T08:17:37.284Z,63.14
2023-03-10T08:20:06.618Z,65.62
2023-03-10T08:22:33.994Z,67.83
2023-03-10T08:25:02.129Z,70.51
2023-03-10T08:27:32.621Z,71.39
2023-03-10T08:29:59.971Z,70.63
2023-03-10T08:32:27.367Z,72.72
2023-03-10T08:34:54.813Z,70.93
2023-03-10T08:37:22.247Z,72.88
2023-03-10T08:39:52.130Z,72.63
2023-03-10T08:42:19.801Z,70.87
2023-03-10T08:44:47.144Z,71.17
2023-03-10T08:47:14.453Z,72.28
2023-03-10T08:49:44.454Z,71.24
2023-03-10T08:52:13.268Z,69.45
2023-03-10T08:54:40.604Z,66.82
2023-03-10T08:57:07.979Z,65.83
2023-03-10T08:59:35.275Z,61.70
2023-03-10T09:02:02.635Z,57.68
2023-03-10T09:04:29.992Z,59.27
2023-03-10T09:06:57.291Z,61.21
2023-03-10T09:09:24.616Z,62.90
2023-03-10T09:11:52.062Z,63.86
2023-03-10T09:14:20.198Z,64.09
2023-03-10T09:16:47.676Z,63.58
2023-03-10T09:19:15.032Z,62.43
2023-03-10T09:21:42.776Z,55.38
2023-03-10T09:24:10.592Z,52.38
2023-03-10T09:26:37.929Z,48.34
2023-03-10T09:29:05.409Z,44.11
2023-03-10T09:31:35.596Z,41.63
2023-03-10T09:34:03.818Z,38.77
2023-03-10T09:36:31.696Z,38.64
2023-03-10T09:38:59.754Z,39.76
2023-03-10T09:41:42.042Z,44.58
2023-03-10T09:44:44.615Z,47.96
2023-03-10T09:47:39.586Z,44.74
2023-03-10T09:50:20.161Z,45.54
2023-03-10T09:53:02.199Z,44.67
2023-03-10T09:55:35.460Z,46.06
2023-03-10T09:58:04.028Z,50.58
2023-03-10T10:00:38.455Z,53.73
2023-03-10T10:03:21.529Z,54.52
2023-03-10T10:05:52.151Z,54.21
2023-03-10T10:08:22.404Z,53.29
2023-03-10T10:10:53.623Z,55.78
2023-03-10T10:13:25.059Z,56.89
2023-03-10T10:16:31.900Z,58.25
2023-03-10T10:19:13.985Z,60.23
2023-03-10T10:22:08.462Z,59.89
2023-03-10T10:24:36.163Z,60.07
2023-03-10T10:27:03.592Z,60.64
2023-03-10T10:29:36.624Z,59.16
2023-03-10T10:32:10.450Z,59.84
2023-03-10T10:34:40.954Z,57.73
2023-03-10T10:37:23.186Z,56.06
2023-03-10T10:39:51.618Z,56.80
2023-03-10T10:42:28.587Z,58.27
2023-03-10T10:45:03.087Z,57.92
2023-03-10T10:47:37.654Z,53.28
2023-03-10T10:50:22.879Z,49.04
2023-03-10T10:52:53.762Z,46.38
2023-03-10T10:55:26.718Z,44.11
2023-03-10T10:58:01.706Z,44.16
2023-03-10T11:00:33.359Z,45.31
2023-03-10T11:03:01.196Z,44.80
2023-03-10T11:05:31.657Z,42.89
2023-03-10T11:08:27.065Z,44.20
2023-03-10T11:11:12.640Z,46.26
2023-03-10T11:14:16.741Z,45.81
2023-03-10T11:17:05.056Z,46.53
2023-03-10T11:19:37.236Z,45.45
2023-03-10T11:22:33.252Z,45.39
2023-03-10T11:25:11.571Z,45.00
2023-03-10T11:27:48.763Z,46.37
2023-03-10T11:30:26.032Z,44.43
2023-03-10T11:33:10.669Z,45.03
2023-03-10T11:35:45.868Z,44.90
2023-03-10T11:38:32.075Z,43.66
2023-03-10T11:41:22.938Z,41.64
2023-03-10T11:43:57.104Z,41.02
2023-03-10T11:46:33.392Z,43.43
2023-03-10T11:49:17.600Z,45.09
2023-03-10T11:51:50.295Z,46.26
2023-03-10T11:54:38.931Z,43.70
2023-03-10T11:57:21.032Z,47.06
2023-03-10T11:59:55.347Z,47.47
2023-03-10T12:02:47.566Z,48.34
2023-03-10T12:05:14.800Z,46.97
2023-03-10T12:07:47.056Z,46.89
2023-03-10T12:10:19.359Z,46.80
2023-03-10T12:12:49.329Z,45.00
2023-03-10T12:15:24.396Z,44.06
2023-03-10T12:17:54.321Z,42.85
2023-03-10T12:20:21.570Z,42.37
2023-03-10T12:22:50.362Z,42.71
2023-03-10T12:25:35.549Z,43.99
2023-03-10T12:28:27.917Z,43.72
2023-03-10T12:31:24.188Z,45.61
2023-03-10T12:33:52.800Z,46.10
2023-03-10T12:36:35.594Z,44.44
2023-03-10T12:39:24.424Z,44.06
2023-03-10T12:41:53.231Z,44.49
2023-03-10T12:44:23.273Z,44.44
2023-03-10T12:46:57.820Z,44.19
2023-03-10T12:49:40.742Z,43.98
2023-03-10T12:52:30.511Z,42.87
2023-03-10T12:55:15.796Z,43.81
2023-03-10T12:58:13.911Z,44.06
2023-03-10T13:01:10.222Z,43.82
2023-03-10T13:03:47.461Z,43.75
2023-03-10T13:06:14.747Z,43.64
2023-03-10T13:08:42.083Z,44.53
2023-03-10T13:11:18.416Z,42.60
2023-03-10T13:13:54.130Z,43.03
2023-03-10T13:16:21.557Z,43.78
2023-03-10T13:18:51.221Z,43.04
2023-03-10T13:21:39.264Z,43.02
2023-03-10T13:24:40.508Z,44.13
2023-03-10T13:27:14.165Z,43.11
2023-03-10T13:30:27.177Z,43.61
2023-03-10T13:32:59.737Z,45.93
2023-03-10T13:35:34.589Z,46.96
2023-03-10T13:38:13.866Z,46.28
2023-03-10T13:40:44.816Z,46.93
2023-03-10T13:43:25.518Z,47.51
2023-03-10T13:46:00.645Z,46.86
2023-03-10T13:48:31.128Z,45.49
2023-03-10T13:51:10.050Z,44.45
2023-03-10T13:53:37.385Z,43.43
2023-03-10T13:56:21.771Z,44.35
2023-03-10T13:58:51.761Z,46.02
2023-03-10T14:01:23.692Z,46.03
2023-03-10T14:03:55.419Z,46.24
2023-03-10T14:06:22.984Z,46.58
2023-03-10T14:08:51.263Z,46.08
2023-03-10T14:11:32.411Z,45.44
2023-03-10T14:14:00.893Z,45.54
2023-03-10T14:16:51.779Z,45.83
2023-03-10T14:19:43.731Z,46.32
2023-03-10T14:22:27.741Z,45.29
2023-03-10T14:24:55.837Z,45.41
2023-03-10T14:27:24.637Z,45.85
2023-03-10T14:29:54.732Z,45.11
2023-03-10T14:32:23.128Z,44.67
2023-03-10T14:34:53.365Z,44.48
2023-03-10T14:37:20.613Z,44.59
2023-03-10T14:39:47.981Z,46.74
2023-03-10T14:42:26.871Z,47.15
2023-03-10T14:44:54.381Z,47.29
2023-03-10T14:47:21.891Z,46.76
2023-03-10T14:49:49.535Z,46.42
2023-03-10T14:52:17.849Z,47.19
2023-03-10T14:54:48.008Z,48.40
2023-03-10T14:57:19.768Z,48.67
2023-03-10T14:59:47.246Z,49.36
2023-03-10T15:02:22.323Z,48.46
2023-03-10T15:04:50.031Z,49.20
2023-03-10T15:07:20.642Z,49.41
2023-03-10T15:09:49.512Z,49.15
2023-03-10T15:12:18.353Z,49.47
2023-03-10T15:14:52.323Z,49.93
2023-03-10T15:17:20.363Z,48.71
2023-03-10T15:19:47.696Z,49.65
2023-03-10T15:22:14.978Z,50.83
2023-03-10T15:24:42.296Z,51.94
2023-03-10T15:27:12.149Z,51.95
2023-03-10T15:29:39.576Z,51.60
2023-03-10T15:32:07.195Z,52.40
2023-03-10T15:34:34.644Z,52.37
2023-03-10T15:37:02.100Z,52.50
2023-03-10T15:39:32.246Z,51.93
2023-03-10T15:42:00.770Z,50.71
2023-03-10T15:44:28.102Z,50.41
2023-03-10T15:46:55.841Z,50.58
2023-03-10T15:49:23.365Z,50.92
2023-03-10T15:51:50.629Z,51.20
2023-03-10T15:54:20.865Z,51.19
2023-03-10T15:56:48.133Z,52.06
2023-03-10T15:59:15.890Z,52.39
2023-03-10T16:01:43.193Z,52.05
2023-03-10T16:04:10.524Z,53.20
2023-03-10T16:06:37.778Z,53.52
2023-03-10T16:09:09.096Z,53.87
2023-03-10T16:11:36.487Z,54.02
2023-03-10T16:14:04.244Z,55.23
2023-03-10T16:16:31.753Z,55.08
2023-03-10T16:18:59.188Z,55.09
2023-03-10T16:21:27.776Z,55.42
2023-03-10T16:23:55.174Z,55.61
2023-03-10T16:26:24.204Z,55.95
2023-03-10T16:28:53.697Z,56.77
2023-03-10T16:31:26.986Z,56.86
2023-03-10T16:33:55.451Z,57.60
2023-03-10T16:36:28.204Z,58.02
2023-03-10T16:38:55.704Z,58.41
2023-03-10T16:41:23.933Z,58.77
2023-03-10T16:43:51.360Z,58.68
2023-03-10T16:46:30.031Z,58.60
2023-03-10T16:49:00.239Z,59.10
2023-03-10T16:51:39.530Z,59.18
2023-03-10T16:54:11.601Z,58.96
2023-03-10T16:56:40.276Z,59.32
2023-03-10T16:59:07.840Z,59.59
2023-03-10T17:01:35.278Z,60.27
2023-03-10T17:04:02.786Z,60.55
2023-03-10T17:06:32.733Z,60.78
2023-03-10T17:09:00.873Z,61.10
2023-03-10T17:11:31.183Z,60.40
2023-03-10T17:14:05.043Z,60.35
2023-03-10T17:16:33.880Z,60.92
2023-03-10T17:19:05.403Z,61.73
2023-03-10T17:21:35.958Z,61.76
2023-03-10T17:24:04.051Z,61.66
2023-03-10T17:26:31.864Z,62.19
2023-03-10T17:28:59.450Z,62.28
2023-03-10T17:31:28.922Z,62.44
2023-03-10T17:33:59.384Z,62.74
2023-03-10T17:36:28.497Z,62.67
2023-03-10T17:38:57.227Z,63.14
2023-03-10T17:41:25.108Z,63.32
2023-03-10T17:43:54.347Z,63.87
2023-03-10T17:46:24.894Z,64.74
2023-03-10T17:48:53.184Z,64.06
2023-03-10T17:51:23.548Z,64.56
2023-03-10T17:53:51.699Z,64.99
2023-03-10T17:56:19.680Z,65.67
2023-03-10T17:58:47.137Z,65.58
2023-03-10T18:01:20.037Z,65.16
2023-03-10T18:03:48.444Z,65.05
2023-03-10T18:06:18.967Z,65.68
2023-03-10T18:08:46.510Z,66.47
2023-03-10T18:11:14.396Z,66.12
2023-03-10T18:13:42.579Z,66.15
2023-03-10T18:16:16.977Z,66.58
2023-03-10T18:18:45.270Z,66.74
2023-03-10T18:21:13.878Z,65.79
2023-03-10T18:23:42.230Z,66.42
2023-03-10T18:26:12.097Z,66.34
2023-03-10T18:28:42.566Z,65.78
2023-03-10T18:31:31.510Z,64.79
2023-03-10T18:33:59.233Z,65.22
2023-03-10T18:36:27.176Z,63.98
2023-03-10T18:38:55.084Z,63.75
2023-03-10T18:41:25.148Z,63.89
2023-03-10T18:43:53.141Z,64.04
2023-03-10T18:46:20.955Z,64.13
2023-03-10T18:48:55.249Z,63.88
2023-03-10T18:51:24.584Z,64.10
2023-03-10T18:53:52.946Z,63.30
2023-03-10T18:56:20.677Z,63.60
2023-03-10T18:58:48.182Z,63.49
2023-03-10T19:01:15.709Z,62.09
2023-03-10T19:03:43.188Z,61.94
2023-03-10T19:06:10.669Z,61.88
2023-03-10T19:08:38.979Z,61.93
2023-03-10T19:11:07.019Z,61.92
2023-03-10T19:13:40.456Z,62.15
2023-03-10T19:16:09.113Z,62.36
2023-03-10T19:18:38.413Z,61.57
2023-03-10T19:21:06.200Z,60.85
2023-03-10T19:23:34.942Z,60.81
2023-03-10T19:26:03.640Z,61.00
2023-03-10T19:28:31.454Z,61.07
2023-03-10T19:31:01.887Z,60.84
2023-03-10T19:33:29.319Z,60.56
2023-03-10T19:36:04.909Z,60.65
2023-03-10T19:38:35.250Z,61.47
2023-03-10T19:41:04.199Z,61.63
2023-03-10T19:43:32.668Z,61.77
2023-03-10T19:46:06.480Z,61.83
2023-03-10T19:48:37.264Z,61.55
2023-03-10T19:51:07.930Z,61.24
2023-03-10T19:53:35.757Z,61.65
2023-03-10T19:56:04.884Z,61.53
2023-03-10T19:58:32.745Z,61.92
2023-03-10T20:01:00.516Z,62.45
2023-03-10T20:03:29.992Z,61.89
2023-03-10T20:05:57.457Z,61.62
2023-03-10T20:08:24.894Z,61.21
2023-03-10T20:10:52.298Z,60.24
2023-03-10T20:13:19.845Z,59.80
2023-03-10T20:15:47.342Z,60.11
2023-03-10T20:18:18.339Z,59.88
2023-03-10T20:20:45.708Z,59.54
2023-03-10T20:23:13.521Z,58.70
2023-03-10T20:26:14.169Z,57.45
2023-03-10T20:28:42.568Z,57.71
2023-03-10T20:31:09.975Z,57.95
2023-03-10T20:33:37.269Z,58.29
2023-03-10T20:36:05.547Z,58.64
2023-03-10T20:38:32.832Z,58.96
2023-03-10T20:41:00.127Z,59.88
2023-03-10T20:43:27.520Z,59.92
2023-03-10T20:45:55.169Z,60.00
2023-03-10T20:48:22.450Z,59.74
2023-03-10T20:50:56.889Z,59.82
2023-03-10T20:53:27.275Z,59.37
2023-03-10T20:55:54.625Z,59.91
2023-03-10T20:58:21.905Z,59.53
2023-03-10T21:00:49.251Z,57.83
2023-03-10T21:03:16.681Z,55.74
2023-03-10T21:05:44.606Z,52.56
2023-03-10T21:08:11.836Z,51.24
2023-03-10T21:10:39.795Z,50.27
2023-03-10T21:13:07.329Z,49.29
2023-03-10T21:15:34.780Z,49.54
2023-03-10T21:18:02.242Z,48.78
2023-03-10T21:20:29.598Z,48.67
2023-03-10T21:22:56.993Z,48.52
2023-03-10T21:25:26.597Z,48.06
2023-03-10T21:27:58.735Z,48.17
2023-03-10T21:30:28.717Z,48.14
2023-03-10T21:32:57.797Z,47.78
2023-03-10T21:35:26.422Z,47.85
2023-03-10T21:37:55.500Z,47.24
2023-03-10T21:40:24.348Z,47.33
2023-03-10T21:42:52.263Z,46.33
2023-03-10T21:45:22.710Z,46.79
2023-03-10T21:47:50.597Z,46.26
2023-03-10T21:50:18.909Z,46.21
2023-03-10T21:52:47.400Z,46.12
2023-03-10T21:55:21.534Z,46.02
2023-03-10T21:57:49.022Z,46.29
2023-03-10T22:00:19.201Z,46.15
2023-03-10T22:02:47.318Z,46.20
2023-03-10T22:05:16.781Z,45.85
2023-03-10T22:07:44.892Z,46.30
2023-03-10T22:10:14.087Z,46.29
2023-03-10T22:12:44.316Z,46.72
2023-03-10T22:15:17.474Z,46.97
2023-03-10T22:17:45.308Z,46.75
2023-03-10T22:20:18.561Z,46.61
2023-03-10T22:22:46.709Z,47.06
2023-03-10T22:25:34.648Z,47.04
2023-03-10T22:28:02.393Z,46.53
2023-03-10T22:30:30.086Z,46.77
2023-03-10T22:32:57.753Z,47.38
2023-03-10T22:35:25.108Z,46.95
2023-03-10T22:37:53.388Z,47.19
2023-03-10T22:40:23.449Z,47.38
2023-03-10T22:42:51.594Z,47.50
2023-03-10T22:45:29.095Z,48.00
2023-03-10T22:48:00.098Z,48.04
2023-03-10T22:50:30.202Z,48.04
2023-03-10T22:52:59.297Z,48.14
2023-03-10T22:55:28.989Z,48.56
2023-03-10T22:57:56.561Z,47.97
2023-03-10T23:00:24.253Z,48.25
2023-03-10T23:02:53.805Z,48.57
2023-03-10T23:05:21.333Z,48.53
2023-03-10T23:07:48.954Z,48.43
2023-03-10T23:10:25.324Z,48.64
2023-03-10T23:12:55.113Z,48.52
2023-03-10T23:15:26.025Z,48.45
2023-03-10T23:17:54.981Z,48.09
2023-03-10T23:20:30.687Z,48.49
2023-03-10T23:23:02.957Z,48.01
2023-03-10T23:25:34.032Z,48.09
2023-03-10T23:28:02.174Z,47.93
2023-03-10T23:30:32.777Z,47.68
2023-03-10T23:33:00.274Z,47.54
2023-03-10T23:35:33.122Z,47.98
2023-03-10T23:38:01.962Z,48.01
2023-03-10T23:40:31.703Z,47.61
2023-03-10T23:43:00.604Z,47.61
2023-03-10T23:45:29.625Z,47.84
2023-03-10T23:48:01.365Z,47.39
2023-03-10T23:50:31.677Z,47.92
2023-03-10T23:52:59.304Z,47.59
2023-03-10T23:55:32.500Z,47.65
2023-03-10T23:58:00.197Z,47.45
